createdAt,value
2018-07-17T00:02:02.158Z,99.90
2018-07-17T00:04:30.359Z,99.90
2018-07-17T00:06:58.526Z,99.90
2018-07-17T00:09:26.702Z,99.90
2018-07-17T00:11:54.881Z,99.90
2018-07-17T00:14:23.297Z,99.90
2018-07-17T00:16:51.717Z,99.90
2018-07-17T00:19:19.935Z,99.90
2018-07-17T00:21:48.154Z,99.90
2018-07-17T00:26:44.304Z,99.90
2018-07-17T00:29:13.229Z,99.90
2018-07-17T00:31:41.428Z,99.90
2018-07-17T00:34:09.622Z,99.90
2018-07-17T00:36:37.791Z,99.90
2018-07-17T00:39:06.878Z,99.90
2018-07-17T00:41:35.058Z,99.90
2018-07-17T00:44:03.249Z,99.90
2018-07-17T00:46:31.417Z,99.90
2018-07-17T00:49:00.390Z,99.90
2018-07-17T00:51:28.542Z,99.90
2018-07-17T00:53:56.746Z,99.90
2018-07-17T00:56:24.926Z,99.90
2018-07-17T00:58:53.592Z,99.90
2018-07-17T01:01:27.238Z,99.90
2018-07-17T01:04:00.810Z,99.90
2018-07-17T01:06:34.569Z,99.90
2018-07-17T01:09:08.234Z,99.90
2018-07-17T01:11:44.041Z,99.90
2018-07-17T01:14:16.329Z,99.90
2018-07-17T01:16:44.565Z,99.90
2018-07-17T01:19:13.080Z,99.90
2018-07-17T01:21:41.273Z,99.90
2018-07-17T01:24:09.553Z,99.90
2018-07-17T01:26:37.719Z,99.90
2018-07-17T01:29:06.015Z,99.90
2018-07-17T01:31:34.153Z,99.90
2018-07-17T01:34:02.297Z,99.90
2018-07-17T01:36:30.522Z,99.90
2018-07-17T01:38:58.743Z,99.90
2018-07-17T01:41:26.989Z,99.90
2018-07-17T01:43:55.157Z,99.90
2018-07-17T01:46:24.204Z,99.90
2018-07-17T01:48:57.338Z,99.90
2018-07-17T01:51:25.515Z,99.90
2018-07-17T01:53:53.705Z,99.90
2018-07-17T01:56:21.906Z,99.90
2018-07-17T01:58:50.097Z,99.90
2018-07-17T02:01:18.289Z,99.90
2018-07-17T02:03:46.454Z,99.90
2018-07-17T02:06:14.610Z,99.90
2018-07-17T02:08:42.825Z,99.90
2018-07-17T02:11:11.072Z,99.90
2018-07-17T02:13:39.239Z,99.90
2018-07-17T02:16:07.415Z,99.90
2018-07-17T02:18:35.578Z,99.90
2018-07-17T02:21:04.077Z,99.90
2018-07-17T02:23:34.149Z,99.90
2018-07-17T02:26:02.377Z,99.90
2018-07-17T02:28:30.497Z,99.90
2018-07-17T02:30:58.695Z,99.90
2018-07-17T02:33:26.889Z,99.90
2018-07-17T02:35:55.069Z,99.90
2018-07-17T02:38:24.214Z,99.90
2018-07-17T02:43:20.357Z,99.90
2018-07-17T02:45:48.628Z,99.90
2018-07-17T02:48:16.787Z,99.90
2018-07-17T02:50:45.367Z,99.90
2018-07-17T02:53:13.535Z,99.90
2018-07-17T02:55:41.782Z,99.90
2018-07-17T02:58:09.962Z,99.90
2018-07-17T03:00:38.326Z,99.90
2018-07-17T03:03:06.635Z,99.90
2018-07-17T03:05:34.810Z,99.90
2018-07-17T03:08:03.048Z,99.90
2018-07-17T03:10:31.256Z,99.90
2018-07-17T03:12:59.406Z,99.90
2018-07-17T03:15:27.598Z,99.90
2018-07-17T03:17:55.806Z,99.90
2018-07-17T03:20:23.998Z,99.90
2018-07-17T03:22:52.502Z,99.90
2018-07-17T03:25:20.710Z,99.90
2018-07-17T03:27:48.879Z,99.90
2018-07-17T03:30:17.814Z,99.90
2018-07-17T03:32:46.034Z,99.90
2018-07-17T03:35:14.933Z,99.90
2018-07-17T03:37:43.081Z,99.90
2018-07-17T03:40:11.834Z,99.90
2018-07-17T03:42:40.023Z,99.90
2018-07-17T03:45:08.326Z,99.90
2018-07-17T03:47:36.526Z,99.90
2018-07-17T03:50:04.763Z,99.90
2018-07-17T03:52:32.937Z,99.90
2018-07-17T03:55:02.065Z,99.90
2018-07-17T03:57:30.276Z,99.90
2018-07-17T03:59:58.445Z,99.90
2018-07-17T04:02:26.734Z,99.90
2018-07-17T04:04:54.960Z,99.90
2018-07-17T04:07:23.146Z,99.90
2018-07-17T04:09:51.367Z,99.90
2018-07-17T04:12:19.520Z,99.90
2018-07-17T04:14:47.770Z,99.90
2018-07-17T04:17:15.924Z,99.90
2018-07-17T04:19:44.733Z,99.90
2018-07-17T04:22:12.910Z,99.90
2018-07-17T04:24:41.159Z,99.90
2018-07-17T04:27:09.341Z,99.90
2018-07-17T04:29:37.521Z,99.90
2018-07-17T04:32:05.838Z,99.90
2018-07-17T04:37:01.959Z,99.90
2018-07-17T04:39:30.851Z,99.90
2018-07-17T04:41:59.038Z,99.90
2018-07-17T04:44:27.528Z,99.90
2018-07-17T04:46:55.733Z,99.90
2018-07-17T04:49:23.985Z,99.90
2018-07-17T04:51:52.179Z,99.90
2018-07-17T04:54:20.459Z,99.90
2018-07-17T04:56:48.642Z,99.90
2018-07-17T04:59:16.910Z,99.90
2018-07-17T05:01:45.373Z,99.90
2018-07-17T05:04:13.569Z,99.90
2018-07-17T05:06:41.783Z,99.90
2018-07-17T05:09:10.683Z,99.90
2018-07-17T05:11:38.918Z,99.90
2018-07-17T05:14:07.810Z,99.90
2018-07-17T05:16:36.037Z,99.90
2018-07-17T05:19:05.121Z,99.90
2018-07-17T05:21:33.293Z,99.90
2018-07-17T05:24:01.499Z,99.90
2018-07-17T05:26:30.033Z,99.90
2018-07-17T05:28:58.546Z,99.90
2018-07-17T05:31:26.706Z,99.90
2018-07-17T05:33:54.883Z,99.90
2018-07-17T05:36:23.048Z,99.90
2018-07-17T05:38:51.277Z,99.90
2018-07-17T05:41:19.418Z,99.90
2018-07-17T05:43:47.646Z,99.90
2018-07-17T05:46:15.841Z,99.90
2018-07-17T05:48:44.118Z,99.90
2018-07-17T05:51:12.284Z,99.90
2018-07-17T05:53:40.415Z,99.90
2018-07-17T05:56:08.637Z,99.90
2018-07-17T05:58:36.825Z,99.90
2018-07-17T06:01:05.013Z,99.90
2018-07-17T06:03:33.202Z,99.90
2018-07-17T06:06:01.407Z,99.90
2018-07-17T06:08:29.630Z,99.90
2018-07-17T06:18:21.694Z,99.90
2018-07-17T06:20:49.872Z,99.90
2018-07-17T06:23:18.146Z,99.90
2018-07-17T06:25:46.702Z,99.90
2018-07-17T06:28:14.885Z,99.90
2018-07-17T06:30:43.043Z,99.90
2018-07-17T06:33:11.276Z,99.90
2018-07-17T06:35:39.484Z,99.90
2018-07-17T06:38:07.806Z,99.90
2018-07-17T06:40:36.101Z,99.60
2018-07-17T06:43:04.265Z,99.20
2018-07-17T06:45:33.185Z,96.70
2018-07-17T06:48:01.380Z,97.60
2018-07-17T06:50:29.625Z,99.20
2018-07-17T06:52:58.287Z,97.70
2018-07-17T06:55:26.485Z,98.20
2018-07-17T06:57:55.703Z,97.10
2018-07-17T07:00:23.874Z,95.70
2018-07-17T07:02:52.018Z,96.30
2018-07-17T07:05:20.230Z,95.40
2018-07-17T07:07:48.381Z,94.60
2018-07-17T07:10:16.583Z,95.50
2018-07-17T07:12:44.757Z,95.50
2018-07-17T07:15:12.949Z,93.50
2018-07-17T07:17:41.190Z,93.70
2018-07-17T07:20:09.382Z,94.40
2018-07-17T07:22:37.558Z,93.20
2018-07-17T07:25:06.058Z,92.50
2018-07-17T07:27:34.233Z,91.50
2018-07-17T07:30:02.418Z,93.00
2018-07-17T07:32:30.554Z,92.70
2018-07-17T07:34:58.969Z,93.60
2018-07-17T07:37:27.215Z,93.00
2018-07-17T07:39:55.353Z,93.00
2018-07-17T07:42:23.603Z,92.30
2018-07-17T07:44:51.790Z,92.00
2018-07-17T07:47:21.458Z,92.30
2018-07-17T07:49:49.675Z,91.80
2018-07-17T07:52:18.431Z,90.70
2018-07-17T07:54:46.604Z,92.00
2018-07-17T07:57:14.774Z,90.50
2018-07-17T07:59:43.845Z,91.00
2018-07-17T08:02:12.263Z,91.90
2018-07-17T08:04:40.443Z,90.00
2018-07-17T08:07:08.620Z,90.70
2018-07-17T08:09:36.818Z,90.90
2018-07-17T08:12:05.034Z,88.10
2018-07-17T08:14:33.584Z,86.80
2018-07-17T08:17:01.786Z,89.20
2018-07-17T08:19:29.974Z,89.70
2018-07-17T08:21:58.261Z,89.90
2018-07-17T08:24:26.516Z,88.40
2018-07-17T08:26:54.706Z,90.50
2018-07-17T08:29:23.481Z,84.90
2018-07-17T08:31:52.042Z,85.10
2018-07-17T08:34:20.241Z,84.10
2018-07-17T08:36:48.405Z,82.70
2018-07-17T08:39:16.635Z,82.10
2018-07-17T08:41:44.778Z,84.40
2018-07-17T08:44:13.074Z,82.50
2018-07-17T08:46:41.258Z,84.60
2018-07-17T08:49:09.441Z,84.30
2018-07-17T08:51:37.677Z,82.60
2018-07-17T08:54:06.613Z,81.60
2018-07-17T08:56:34.801Z,79.00
2018-07-17T08:59:02.991Z,78.00
2018-07-17T09:01:31.833Z,76.90
2018-07-17T09:04:00.032Z,78.50
2018-07-17T09:06:29.176Z,77.50
2018-07-17T09:08:57.349Z,79.00
2018-07-17T09:11:25.540Z,79.40
2018-07-17T09:13:53.727Z,78.10
2018-07-17T09:16:22.426Z,78.50
2018-07-17T09:18:50.705Z,77.80
2018-07-17T09:21:19.719Z,81.70
2018-07-17T09:23:48.477Z,84.00
2018-07-17T09:26:16.649Z,80.00
2018-07-17T09:28:45.438Z,75.80
2018-07-17T09:31:13.614Z,75.30
2018-07-17T09:33:41.842Z,74.90
2018-07-17T09:36:09.982Z,72.10
2018-07-17T09:38:38.190Z,74.30
2018-07-17T09:41:06.358Z,74.20
2018-07-17T09:43:34.557Z,74.50
2018-07-17T09:46:02.705Z,73.90
2018-07-17T09:48:30.902Z,72.00
2018-07-17T09:50:59.109Z,72.30
2018-07-17T09:53:27.381Z,73.10
2018-07-17T09:55:55.573Z,73.00
2018-07-17T09:58:24.309Z,71.40
2018-07-17T10:00:58.087Z,70.00
2018-07-17T10:03:26.251Z,71.90
2018-07-17T10:05:54.452Z,68.90
2018-07-17T10:08:22.650Z,68.10
2018-07-17T10:10:50.883Z,69.40
2018-07-17T10:13:19.058Z,65.80
2018-07-17T10:15:47.301Z,63.00
2018-07-17T10:18:15.525Z,65.20
2018-07-17T10:20:43.714Z,64.70
2018-07-17T10:23:11.971Z,61.10
2018-07-17T10:25:40.194Z,63.90
2018-07-17T10:28:08.353Z,63.10
2018-07-17T10:30:37.313Z,60.40
2018-07-17T10:33:05.499Z,61.30
2018-07-17T10:35:33.906Z,61.90
2018-07-17T10:38:02.085Z,58.50
2018-07-17T10:40:30.250Z,59.20
2018-07-17T10:42:58.466Z,59.00
2018-07-17T10:45:26.675Z,59.40
2018-07-17T10:47:55.102Z,58.60
2018-07-17T10:50:23.301Z,56.90
2018-07-17T10:52:51.514Z,54.70
2018-07-17T10:55:20.447Z,56.70
2018-07-17T10:57:48.634Z,59.50
2018-07-17T11:00:16.975Z,59.50
2018-07-17T11:02:45.162Z,58.70
2018-07-17T11:05:13.347Z,57.10
2018-07-17T11:07:41.721Z,56.70
2018-07-17T11:10:09.896Z,56.10
2018-07-17T11:12:38.311Z,55.10
2018-07-17T11:15:06.511Z,57.40
2018-07-17T11:17:34.690Z,58.20
2018-07-17T11:20:02.857Z,56.70
2018-07-17T11:22:32.453Z,56.70
2018-07-17T11:25:00.665Z,53.50
2018-07-17T11:27:30.529Z,53.30
2018-07-17T11:29:59.384Z,55.70
2018-07-17T11:32:27.783Z,55.30
2018-07-17T11:34:56.002Z,54.90
2018-07-17T11:37:24.181Z,54.80
2018-07-17T11:39:52.429Z,53.40
2018-07-17T11:42:22.538Z,54.10
2018-07-17T11:44:50.749Z,54.10
2018-07-17T11:47:18.918Z,54.50
2018-07-17T11:49:47.237Z,53.60
2018-07-17T11:52:15.642Z,52.00
2018-07-17T11:54:43.839Z,53.90
2018-07-17T11:57:12.367Z,54.20
2018-07-17T11:59:40.660Z,53.30
2018-07-17T12:02:08.752Z,51.10
2018-07-17T12:04:36.974Z,51.80
2018-07-17T12:07:07.768Z,52.40
2018-07-17T12:09:37.065Z,53.20
2018-07-17T12:12:05.472Z,53.30
2018-07-17T12:14:33.697Z,53.40
2018-07-17T12:17:03.646Z,52.30
2018-07-17T12:19:31.897Z,51.00
2018-07-17T12:22:00.155Z,50.90
2018-07-17T12:24:28.309Z,51.90
2018-07-17T12:26:56.574Z,52.20
2018-07-17T12:29:24.914Z,52.90
2018-07-17T12:31:53.164Z,53.40
2018-07-17T12:34:21.413Z,52.90
2018-07-17T12:36:49.692Z,53.00
2018-07-17T12:39:17.870Z,54.10
2018-07-17T12:41:46.053Z,54.80
2018-07-17T12:46:42.425Z,53.60
2018-07-17T12:49:10.750Z,53.40
2018-07-17T12:51:38.898Z,54.70
2018-07-17T12:54:07.077Z,55.80
2018-07-17T12:56:35.275Z,54.10
2018-07-17T12:59:03.536Z,52.40
2018-07-17T13:01:31.727Z,53.70
2018-07-17T13:03:59.930Z,51.80
2018-07-17T13:06:28.161Z,51.30
2018-07-17T13:08:56.337Z,52.60
2018-07-17T13:11:24.557Z,51.40
2018-07-17T13:13:52.732Z,51.40
2018-07-17T13:16:20.911Z,51.10
2018-07-17T13:18:49.114Z,49.80
2018-07-17T13:21:17.294Z,52.90
2018-07-17T13:23:45.474Z,52.30
2018-07-17T13:26:13.691Z,52.90
2018-07-17T13:28:41.910Z,52.20
2018-07-17T13:31:10.122Z,52.80
2018-07-17T13:33:38.298Z,51.60
2018-07-17T13:36:07.327Z,53.30
2018-07-17T13:38:35.549Z,54.00
2018-07-17T13:41:03.738Z,55.80
2018-07-17T13:43:31.945Z,56.30
2018-07-17T13:46:00.062Z,57.80
2018-07-17T13:48:28.286Z,56.80
2018-07-17T13:50:56.753Z,55.20
2018-07-17T13:53:25.382Z,54.20
2018-07-17T13:55:53.570Z,54.50
2018-07-17T13:58:21.789Z,56.10
2018-07-17T14:00:50.074Z,54.90
2018-07-17T14:03:18.277Z,54.40
2018-07-17T14:05:46.450Z,54.70
2018-07-17T14:08:14.682Z,53.30
2018-07-17T14:10:42.894Z,52.90
2018-07-17T14:13:11.082Z,52.60
2018-07-17T14:15:39.305Z,53.80
2018-07-17T14:18:07.458Z,52.60
2018-07-17T14:20:35.658Z,54.20
2018-07-17T14:23:03.820Z,52.20
2018-07-17T14:25:32.022Z,50.90
2018-07-17T14:28:00.194Z,51.30
2018-07-17T14:30:28.377Z,51.00
2018-07-17T14:32:56.582Z,51.10
2018-07-17T14:35:24.776Z,49.50
2018-07-17T14:37:52.957Z,49.10
2018-07-17T14:40:21.134Z,48.50
2018-07-17T14:42:49.314Z,50.10
2018-07-17T14:45:17.819Z,49.80
2018-07-17T14:50:14.155Z,51.60
2018-07-17T14:52:43.406Z,54.20
2018-07-17T14:55:12.717Z,55.10
2018-07-17T14:57:41.227Z,55.70
2018-07-17T15:00:10.488Z,57.10
2018-07-17T15:02:38.689Z,59.20
2018-07-17T15:05:07.106Z,58.00
2018-07-17T15:07:35.348Z,58.50
2018-07-17T15:10:03.770Z,58.60
2018-07-17T15:12:31.978Z,59.10
2018-07-17T15:15:00.207Z,59.80
2018-07-17T15:17:28.668Z,59.20
2018-07-17T15:19:56.912Z,59.50
2018-07-17T15:22:25.086Z,59.80
2018-07-17T15:24:55.149Z,60.70
2018-07-17T15:27:23.475Z,61.90
2018-07-17T15:29:52.513Z,61.90
2018-07-17T15:32:21.158Z,62.50
2018-07-17T15:34:49.372Z,61.80
2018-07-17T15:37:17.910Z,60.10
2018-07-17T15:39:46.093Z,58.80
2018-07-17T15:42:14.485Z,58.80
2018-07-17T15:44:42.658Z,58.70
2018-07-17T15:47:10.963Z,58.90
2018-07-17T15:49:39.195Z,59.60
2018-07-17T15:52:07.377Z,59.70
2018-07-17T15:54:35.664Z,59.10
2018-07-17T15:57:03.905Z,58.70
2018-07-17T15:59:32.074Z,58.80
2018-07-17T16:02:00.294Z,60.00
2018-07-17T16:04:28.910Z,59.60
2018-07-17T16:06:57.055Z,60.40
2018-07-17T16:09:25.259Z,61.00
2018-07-17T16:11:53.453Z,60.10
2018-07-17T16:16:49.623Z,59.50
2018-07-17T16:19:19.639Z,58.50
2018-07-17T16:21:47.822Z,57.90
2018-07-17T16:24:16.015Z,58.90
2018-07-17T16:26:44.359Z,58.20
2018-07-17T16:29:13.150Z,57.60
2018-07-17T16:31:41.421Z,56.90
2018-07-17T16:34:09.715Z,56.30
2018-07-17T16:36:37.925Z,56.10
2018-07-17T16:39:06.869Z,56.10
2018-07-17T16:41:35.115Z,56.00
2018-07-17T16:46:31.954Z,57.30
2018-07-17T16:49:01.030Z,57.50
2018-07-17T16:51:29.277Z,57.90
2018-07-17T16:53:57.919Z,57.00
2018-07-17T16:56:26.378Z,57.40
2018-07-17T16:58:54.564Z,57.40
2018-07-17T17:01:23.359Z,57.00
2018-07-17T17:03:52.537Z,57.50
2018-07-17T17:06:21.021Z,57.70
2018-07-17T17:08:49.179Z,57.80
2018-07-17T17:11:17.419Z,58.20
2018-07-17T17:13:45.692Z,58.00
2018-07-17T17:16:13.911Z,59.00
2018-07-17T17:18:42.174Z,59.40
2018-07-17T17:21:10.457Z,59.10
2018-07-17T17:23:38.695Z,60.60
2018-07-17T17:26:06.870Z,60.70
2018-07-17T17:28:35.113Z,60.60
2018-07-17T17:31:03.358Z,60.40
2018-07-17T17:33:31.561Z,61.40
2018-07-17T17:35:59.735Z,61.30
2018-07-17T17:38:27.873Z,62.10
2018-07-17T17:40:56.077Z,62.10
2018-07-17T17:43:24.272Z,63.20
2018-07-17T17:45:52.504Z,63.00
2018-07-17T17:48:21.273Z,64.80
2018-07-17T17:50:49.652Z,65.10
2018-07-17T17:53:17.830Z,66.00
2018-07-17T17:55:46.003Z,66.20
2018-07-17T17:58:14.312Z,65.30
2018-07-17T18:00:42.556Z,66.00
2018-07-17T18:03:11.081Z,66.60
2018-07-17T18:05:40.043Z,66.60
2018-07-17T18:08:08.282Z,67.00
2018-07-17T18:10:36.455Z,68.00
2018-07-17T18:13:04.941Z,68.70
2018-07-17T18:15:33.105Z,68.30
2018-07-17T18:18:01.645Z,69.30
2018-07-17T18:20:29.821Z,68.30
2018-07-17T18:22:58.018Z,69.20
2018-07-17T18:25:26.289Z,69.10
2018-07-17T18:27:54.525Z,70.10
2018-07-17T18:30:22.892Z,69.80
2018-07-17T18:32:51.198Z,69.60
2018-07-17T18:35:19.501Z,70.40
2018-07-17T18:37:47.699Z,71.00
2018-07-17T18:40:15.913Z,70.90
2018-07-17T18:42:44.140Z,71.30
2018-07-17T18:45:12.306Z,71.90
2018-07-17T18:47:40.528Z,72.50
2018-07-17T18:50:12.864Z,72.50
2018-07-17T18:52:36.833Z,73.90
2018-07-17T18:55:04.981Z,74.20
2018-07-17T18:57:33.181Z,74.50
2018-07-17T19:00:01.402Z,74.60
2018-07-17T19:02:29.575Z,75.00
2018-07-17T19:04:57.771Z,76.40
2018-07-17T19:07:25.947Z,77.60
2018-07-17T19:09:54.118Z,79.30
2018-07-17T19:12:22.324Z,79.70
2018-07-17T19:14:51.471Z,80.30
2018-07-17T19:17:19.642Z,82.20
2018-07-17T19:19:47.931Z,83.60
2018-07-17T19:22:17.724Z,84.80
2018-07-17T19:24:46.322Z,85.90
2018-07-17T19:27:14.482Z,86.60
2018-07-17T19:29:43.183Z,88.20
2018-07-17T19:32:11.785Z,89.00
2018-07-17T19:34:39.996Z,89.10
2018-07-17T19:37:08.204Z,89.80
2018-07-17T19:39:36.474Z,90.20
2018-07-17T19:42:04.690Z,90.80
2018-07-17T19:44:32.881Z,91.00
2018-07-17T19:47:01.066Z,91.70
2018-07-17T19:49:29.290Z,92.00
2018-07-17T19:51:58.806Z,91.60
2018-07-17T19:54:27.653Z,91.20
2018-07-17T19:56:55.904Z,90.60
2018-07-17T19:59:24.160Z,89.80
2018-07-17T20:01:52.393Z,88.80
2018-07-17T20:04:20.565Z,87.90
2018-07-17T20:06:48.762Z,87.00
2018-07-17T20:09:16.983Z,86.80
2018-07-17T20:11:45.635Z,87.30
2018-07-17T20:14:13.862Z,87.40
2018-07-17T20:16:42.015Z,87.70
2018-07-17T20:19:11.794Z,88.00
2018-07-17T20:21:39.981Z,88.60
2018-07-17T20:24:08.622Z,89.00
2018-07-17T20:26:36.817Z,89.70
2018-07-17T20:29:05.341Z,90.00
2018-07-17T20:31:33.562Z,90.40
2018-07-17T20:34:02.409Z,90.60
2018-07-17T20:36:30.595Z,90.80
2018-07-17T20:38:59.470Z,91.20
2018-07-17T20:41:27.706Z,91.40
2018-07-17T20:43:55.901Z,91.80
2018-07-17T20:46:24.082Z,92.00
2018-07-17T20:48:52.325Z,92.50
2018-07-17T20:51:20.519Z,92.70
2018-07-17T20:53:48.734Z,93.10
2018-07-17T20:56:17.437Z,93.40
2018-07-17T20:58:45.635Z,93.70
2018-07-17T21:01:13.718Z,93.90
2018-07-17T21:03:41.965Z,94.30
2018-07-17T21:06:10.247Z,94.60
2018-07-17T21:08:38.450Z,95.10
2018-07-17T21:11:06.695Z,95.50
2018-07-17T21:13:34.897Z,95.90
2018-07-17T21:16:03.105Z,96.10
2018-07-17T21:18:31.261Z,96.50
2018-07-17T21:20:59.461Z,97.20
2018-07-17T21:23:27.682Z,97.40
2018-07-17T21:25:55.842Z,97.90
2018-07-17T21:28:24.039Z,98.50
2018-07-17T21:30:52.311Z,99.00
2018-07-17T21:33:20.522Z,99.90
2018-07-17T21:35:48.728Z,99.90
2018-07-17T21:38:16.915Z,99.90
2018-07-17T21:40:45.878Z,99.90
2018-07-17T21:43:14.761Z,99.90
2018-07-17T21:48:10.842Z,99.90
2018-07-17T21:50:39.012Z,99.90
2018-07-17T21:53:07.182Z,99.90
2018-07-17T21:55:35.613Z,99.90
2018-07-17T21:58:03.898Z,99.90
2018-07-17T22:00:33.038Z,99.90
2018-07-17T22:03:01.663Z,99.90
2018-07-17T22:05:29.857Z,99.90
2018-07-17T22:07:58.028Z,99.90
2018-07-17T22:10:26.186Z,99.90
2018-07-17T22:12:54.365Z,99.90
2018-07-17T22:15:22.548Z,99.90
2018-07-17T22:17:51.006Z,99.90
2018-07-17T22:20:19.182Z,99.90
2018-07-17T22:22:47.357Z,99.90
2018-07-17T22:25:15.534Z,99.90
2018-07-17T22:27:43.680Z,99.90
2018-07-17T22:30:11.875Z,99.90
2018-07-17T22:32:40.065Z,99.90
2018-07-17T22:35:08.226Z,99.90
2018-07-17T22:37:37.350Z,99.90
2018-07-17T22:40:05.822Z,99.90
2018-07-17T22:42:34.006Z,99.90
2018-07-17T22:45:02.207Z,99.90
2018-07-17T22:47:30.362Z,99.90
2018-07-17T22:49:58.529Z,99.90
2018-07-17T22:52:26.729Z,99.90
2018-07-17T22:54:55.058Z,99.90
2018-07-17T22:57:23.245Z,99.90
2018-07-17T22:59:51.402Z,99.90
2018-07-17T23:02:19.545Z,99.90
2018-07-17T23:04:47.777Z,99.90
2018-07-17T23:07:15.942Z,99.90
2018-07-17T23:09:44.231Z,99.90
2018-07-17T23:12:12.704Z,99.90
2018-07-17T23:14:40.878Z,99.90
2018-07-17T23:17:09.109Z,99.90
2018-07-17T23:19:37.285Z,99.90
2018-07-17T23:22:05.685Z,99.90
2018-07-17T23:24:34.551Z,99.90
2018-07-17T23:27:02.725Z,99.90
2018-07-17T23:29:30.891Z,99.90
2018-07-17T23:31:59.072Z,99.90
2018-07-17T23:34:27.270Z,99.90
2018-07-17T23:36:55.453Z,99.90
2018-07-17T23:39:23.617Z,99.90
2018-07-17T23:41:51.801Z,99.90
2018-07-17T23:44:19.992Z,99.90
2018-07-17T23:46:48.211Z,99.90
2018-07-17T23:49:22.649Z,99.90
2018-07-17T23:51:50.820Z,99.90
2018-07-17T23:54:18.999Z,99.90
2018-07-17T23:56:47.415Z,99.90
2018-07-17T23:59:15.895Z,99.90
